Time;durP1;ratioP1;P1;durP2;ratioP2;P2;SDS_P1;SDS_P2;PMS_P1;PMS_P2;Temp;Humidity;BMP_temperature;BMP_pressure;BME280_temperature;BME280_humidity;BME280_pressure;Samples;Min_cycle;Max_cycle;Signal;HPM_P1;HPM_P2
2021/12/14 00:00:11;;;;;;;;;;;;;;;29.10;22.13;98406.41;171120;28;988;-49
2021/12/14 00:00:19;;;;;;;;;;;;;;;29.10;22.21;98405.56;171364;28;1907;-49
2021/12/14 00:00:32;;;;;;;;;;;;;;;29.08;21.99;98397.72;171077;28;963;-49
2021/12/14 00:00:39;;;;;;;;;;;;;;;29.05;22.06;98405.91;171196;28;999;-49
2021/12/14 00:00:46;;;;;;;;;;;;;;;29.06;21.87;98409.41;171369;28;854;-49
2021/12/14 00:00:53;;;;;;;;;;;;;;;29.06;22.02;98398.78;171203;28;1115;-49
2021/12/14 00:01:00;;;;;;;;;;;;;;;29.00;21.95;98389.50;171342;28;869;-49
2021/12/14 00:01:17;;;;;;;;;;;;;;;29.07;22.14;98406.66;170946;28;1724;-49
2021/12/14 00:01:22;;;;;;;;;;;;;;;29.05;22.14;98405.91;171199;28;818;-49
2021/12/14 00:01:34;;;;;;;;;;;;;;;29.06;21.91;98410.25;171268;28;1091;-49
2021/12/14 00:01:44;;;;;;;;;;;;;;;29.08;21.98;98402.19;171138;28;1067;-49
2021/12/14 00:01:50;;;;;;;;;;;;;;;29.06;22.26;98399.63;171261;28;1142;-48
2021/12/14 00:01:56;;;;;;;;;;;;;;;29.06;21.89;98410.25;171257;28;900;-49
2021/12/14 00:02:01;;;;;;;;;;;;;;;29.02;21.99;98402.66;171046;28;1182;-49
2021/12/14 00:02:06;;;;;;;;;;;;;;;29.02;22.14;98397.34;171140;28;938;-49
2021/12/14 00:02:12;;;;;;;;;;;;;;;29.02;21.97;98400.84;171227;28;1102;-49
2021/12/14 00:02:17;;;;;;;;;;;;;;;29.05;22.02;98408.56;171420;28;861;-50
2021/12/14 00:02:25;;;;;;;;;;;;;;;29.06;22.04;98401.44;171229;28;1019;-49
2021/12/14 00:02:30;;;;;;;;;;;;;;;29.03;22.05;98399.03;171307;28;872;-49
2021/12/14 00:02:38;;;;;;;;;;;;;;;29.02;22.12;98402.66;171264;28;1169;-49
2021/12/14 00:02:44;;;;;;;;;;;;;;;29.02;21.83;98403.50;171377;28;849;-48
2021/12/14 00:02:49;;;;;;;;;;;;;;;29.04;22.25;98403.38;171246;28;1233;-49
2021/12/14 00:02:54;;;;;;;;;;;;;;;29.03;21.87;98407.00;171165;28;909;-48
2021/12/14 00:03:00;;;;;;;;;;;;;;;29.02;22.05;98397.34;171196;28;1158;-49
2021/12/14 00:03:06;;;;;;;;;;;;;;;29.06;22.23;98406.75;171156;28;790;-50
2021/12/14 00:03:11;;;;;;;;;;;;;;;29.04;22.04;98398.91;170440;28;4283;-49
2021/12/14 00:03:17;;;;;;;;;;;;;;;29.02;22.00;98402.66;169897;29;874;-48
2021/12/14 00:03:24;;;;;;;;;;;;;;;29.02;22.18;98407.97;170113;29;1155;-49
2021/12/14 00:03:29;;;;;;;;;;;;;;;29.00;22.08;98394.81;170637;29;826;-49
2021/12/14 00:03:35;;;;;;;;;;;;;;;29.03;22.26;98404.34;170582;29;1175;-49
2021/12/14 00:03:41;;;;;;;;;;;;;;;29.03;21.90;98404.34;170469;28;901;-50
2021/12/14 00:03:47;;;;;;;;;;;;;;;29.04;22.11;98404.22;170575;29;1150;-49
2021/12/14 00:03:53;;;;;;;;;;;;;;;29.05;21.95;98402.41;170567;29;802;-48
2021/12/14 00:04:00;;;;;;;;;;;;;;;29.05;22.12;98399.75;170483;28;1265;-48
2021/12/14 00:04:07;;;;;;;;;;;;;;;29.06;22.04;98404.09;170526;29;1016;-48
2021/12/14 00:04:16;;;;;;;;;;;;;;;29.06;21.92;98401.44;169540;29;1454;-49
2021/12/14 00:04:28;;;;;;;;;;;;;;;29.07;22.08;98405.78;170194;29;925;-48
2021/12/14 00:04:33;;;;;;;;;;;;;;;29.08;22.07;98402.19;170477;28;1576;-49
2021/12/14 00:04:39;;;;;;;;;;;;;;;29.07;21.91;98401.34;170675;28;835;-49
2021/12/14 00:04:44;;;;;;;;;;;;;;;29.08;22.04;98407.50;170593;28;917;-49
2021/12/14 00:04:49;;;;;;;;;;;;;;;29.06;22.12;98404.94;171182;28;869;-48
2021/12/14 00:04:55;;;;;;;;;;;;;;;29.06;22.17;98402.28;171023;28;747;-49
2021/12/14 00:05:01;;;;;;;;;;;;;;;29.06;21.74;98412.91;171140;28;855;-49
2021/12/14 00:05:06;;;;;;;;;;;;;;;29.06;22.10;98404.09;171029;28;786;-49
2021/12/14 00:05:12;;;;;;;;;;;;;;;29.05;22.17;98402.41;171130;28;1146;-49
2021/12/14 00:05:17;;;;;;;;;;;;;;;29.05;21.87;98402.41;170616;28;802;-49
2021/12/14 00:05:23;;;;;;;;;;;;;;;29.04;21.83;98404.22;169662;28;1903;-49
2021/12/14 00:05:28;;;;;;;;;;;;;;;29.03;22.01;98409.66;170065;29;890;-49
2021/12/14 00:05:35;;;;;;;;;;;;;;;29.04;21.75;98406.88;170827;28;1172;-49
2021/12/14 00:05:40;;;;;;;;;;;;;;;29.03;22.09;98399.88;171311;28;849;-49
2021/12/14 00:05:46;;;;;;;;;;;;;;;29.06;21.87;98410.25;170757;28;1154;-49
2021/12/14 00:05:51;;;;;;;;;;;;;;;29.06;21.71;98409.41;170590;29;826;-48
2021/12/14 00:05:56;;;;;;;;;;;;;;;29.06;21.92;98407.59;170794;28;1131;-49
2021/12/14 00:06:01;;;;;;;;;;;;;;;29.07;21.95;98409.31;170828;28;1094;-49
2021/12/14 00:06:07;;;;;;;;;;;;;;;29.08;21.95;98408.34;170312;29;1205;-49
2021/12/14 00:06:15;;;;;;;;;;;;;;;29.09;22.16;98406.53;171224;28;838;-49
2021/12/14 00:06:21;;;;;;;;;;;;;;;29.10;21.96;98409.06;171168;28;1166;-49
2021/12/14 00:06:26;;;;;;;;;;;;;;;29.10;21.93;98402.91;171304;28;877;-48
2021/12/14 00:06:31;;;;;;;;;;;;;;;29.09;22.00;98406.53;170586;28;1162;-49
2021/12/14 00:06:38;;;;;;;;;;;;;;;29.11;22.00;98410.72;169849;29;873;-49
2021/12/14 00:06:43;;;;;;;;;;;;;;;29.11;21.69;98405.41;170171;29;1171;-49
2021/12/14 00:06:48;;;;;;;;;;;;;;;29.12;21.75;98404.44;170604;29;1032;-49
2021/12/14 00:06:54;;;;;;;;;;;;;;;29.12;21.90;98404.44;170241;29;1142;-48
2021/12/14 00:07:00;;;;;;;;;;;;;;;29.14;21.93;98409.63;170150;29;936;-50
2021/12/14 00:07:06;;;;;;;;;;;;;;;29.16;22.02;98405.06;169459;29;1017;-49
2021/12/14 00:07:14;;;;;;;;;;;;;;;29.14;21.91;98410.47;170183;28;4240;-49
2021/12/14 00:07:19;;;;;;;;;;;;;;;29.15;21.86;98404.22;170594;29;1174;-49
2021/12/14 00:07:24;;;;;;;;;;;;;;;29.14;22.06;98409.63;170509;29;802;-48
2021/12/14 00:07:30;;;;;;;;;;;;;;;29.11;21.90;98404.59;170609;29;1095;-48
2021/12/14 00:07:35;;;;;;;;;;;;;;;29.09;21.79;98410.03;170648;29;826;-49
2021/12/14 00:07:41;;;;;;;;;;;;;;;29.10;22.00;98409.06;170559;29;1134;-50
2021/12/14 00:07:46;;;;;;;;;;;;;;;29.10;21.93;98408.22;170583;29;886;-49
2021/12/14 00:07:53;;;;;;;;;;;;;;;29.10;22.17;98408.22;170610;29;811;-49
2021/12/14 00:08:00;;;;;;;;;;;;;;;29.10;21.90;98406.41;170002;29;853;-48
2021/12/14 00:08:06;;;;;;;;;;;;;;;29.10;21.72;98406.41;170117;29;1032;-48
2021/12/14 00:08:15;;;;;;;;;;;;;;;29.09;22.00;98404.72;170631;29;1020;-49
2021/12/14 00:08:20;;;;;;;;;;;;;;;29.11;21.92;98408.06;170020;28;1432;-49
2021/12/14 00:08:30;;;;;;;;;;;;;;;29.11;22.03;98408.06;169401;28;1767;-48
2021/12/14 00:08:47;;;;;;;;;;;;;;;29.11;22.09;98405.41;170152;29;945;-49
2021/12/14 00:08:56;;;;;;;;;;;;;;;29.10;21.88;98401.09;170167;29;1156;-48
2021/12/14 00:09:03;;;;;;;;;;;;;;;29.09;21.87;98403.88;171190;28;1125;-48
2021/12/14 00:09:10;;;;;;;;;;;;;;;29.10;22.04;98405.56;170419;29;878;-49
2021/12/14 00:09:24;;;;;;;;;;;;;;;29.08;21.86;98407.50;170821;28;1140;-48
2021/12/14 00:09:34;;;;;;;;;;;;;;;29.07;22.05;98406.66;171045;28;1076;-49
2021/12/14 00:09:41;;;;;;;;;;;;;;;29.08;21.93;98403.03;170936;28;1076;-49
2021/12/14 00:09:46;;;;;;;;;;;;;;;29.09;22.11;98409.19;171320;28;881;-49
2021/12/14 00:10:00;;;;;;;;;;;;;;;29.07;21.88;98408.44;171115;28;1135;-48
2021/12/14 00:10:31;;;;;;;;;;;;;;;29.04;22.07;98404.22;170981;28;1055;-49
2021/12/14 00:11:12;;;;;;;;;;;;;;;29.01;21.90;98400.97;171270;28;996;-49
2021/12/14 00:11:30;;;;;;;;;;;;;;;29.02;21.90;98407.97;169891;29;4339;-49
2021/12/14 00:12:07;;;;;;;;;;;;;;;29.02;22.25;98405.31;170417;28;1154;-49
2021/12/14 00:12:44;;;;;;;;;;;;;;;29.04;21.94;98404.22;170535;29;1012;-49
2021/12/14 00:13:01;;;;;;;;;;;;;;;29.00;22.06;98402.78;170539;29;1068;-49
2021/12/14 00:13:25;;;;;;;;;;;;;;;29.00;21.91;98405.44;170427;29;891;-48
2021/12/14 00:13:54;;;;;;;;;;;;;;;28.98;21.91;98414.47;170541;28;1072;-49
2021/12/14 00:15:03;;;;;;;;;;;;;;;28.97;22.03;98405.66;168559;29;1148;-49
2021/12/14 00:15:03;;;;;;;;;;;;;;;29.02;22.26;98410.63;168209;29;863;-49
2021/12/14 00:15:10;;;;;;;;;;;;;;;29.00;22.21;98409.91;167916;29;1438;-48
2021/12/14 00:15:15;;;;;;;;;;;;;;;29.00;22.07;98405.44;167693;29;4430;-48
2021/12/14 00:15:20;;;;;;;;;;;;;;;28.99;22.18;98406.38;168065;29;1015;-49
2021/12/14 00:15:25;;;;;;;;;;;;;;;29.01;22.15;98411.59;168629;29;807;-49
2021/12/14 00:15:31;;;;;;;;;;;;;;;28.98;22.01;98411.81;168602;29;1243;-49
2021/12/14 00:15:36;;;;;;;;;;;;;;;28.97;22.07;98408.31;169443;29;1005;-49
2021/12/14 00:15:41;;;;;;;;;;;;;;;28.99;21.84;98408.19;170622;29;916;-49
2021/12/14 00:15:46;;;;;;;;;;;;;;;28.97;22.04;98405.66;170625;29;1159;-49
2021/12/14 00:15:52;;;;;;;;;;;;;;;28.99;22.17;98402.88;170488;29;901;-49
2021/12/14 00:15:57;;;;;;;;;;;;;;;28.98;22.04;98406.50;170372;29;1099;-49
2021/12/14 00:16:02;;;;;;;;;;;;;;;28.98;22.06;98403.84;170484;28;1106;-48
2021/12/14 00:16:08;;;;;;;;;;;;;;;28.99;22.02;98405.53;169862;29;1451;-49
2021/12/14 00:16:13;;;;;;;;;;;;;;;28.99;22.24;98409.03;170320;29;1009;-49
2021/12/14 00:16:18;;;;;;;;;;;;;;;28.99;21.94;98406.38;170007;29;1179;-49
2021/12/14 00:16:24;;;;;;;;;;;;;;;29.01;22.30;98411.59;170595;29;814;-48
2021/12/14 00:16:29;;;;;;;;;;;;;;;28.98;22.10;98404.69;170637;29;807;-49
2021/12/14 00:16:34;;;;;;;;;;;;;;;29.01;22.14;98409.78;170571;29;1313;-49
2021/12/14 00:16:39;;;;;;;;;;;;;;;28.99;22.07;98406.38;170564;29;1049;-49
2021/12/14 00:16:48;;;;;;;;;;;;;;;29.00;22.16;98413.41;170534;29;1173;-48
2021/12/14 00:16:56;;;;;;;;;;;;;;;29.01;21.85;98409.78;170531;29;1028;-49
2021/12/14 00:17:02;;;;;;;;;;;;;;;28.95;22.26;98402.31;170604;29;903;-49
2021/12/14 00:17:08;;;;;;;;;;;;;;;29.06;22.13;98412.06;170310;29;1040;-49
2021/12/14 00:17:15;;;;;;;;;;;;;;;29.06;22.18;98404.94;170692;29;810;-48
2021/12/14 00:17:25;;;;;;;;;;;;;;;29.06;22.13;98410.25;170596;29;1150;-49
2021/12/14 00:17:35;;;;;;;;;;;;;;;29.02;22.05;98408.81;170634;29;1095;-49
2021/12/14 00:17:45;;;;;;;;;;;;;;;29.04;22.01;98414.00;170568;28;861;-49
2021/12/14 00:17:52;;;;;;;;;;;;;;;29.02;22.02;98414.13;170456;29;806;-49
2021/12/14 00:17:59;;;;;;;;;;;;;;;29.00;22.24;98405.44;169937;29;871;-49
2021/12/14 00:18:05;;;;;;;;;;;;;;;29.02;21.83;98407.97;169754;29;1182;-49
2021/12/14 00:18:13;;;;;;;;;;;;;;;29.02;21.92;98407.97;170616;29;834;-48
2021/12/14 00:18:18;;;;;;;;;;;;;;;29.01;22.15;98409.78;170449;29;1167;-48
2021/12/14 00:18:23;;;;;;;;;;;;;;;28.98;21.87;98404.69;170483;29;787;-49
2021/12/14 00:18:29;;;;;;;;;;;;;;;28.99;22.22;98408.19;170464;28;964;-49
2021/12/14 00:18:34;;;;;;;;;;;;;;;29.00;22.13;98405.44;170590;29;795;-50
2021/12/14 00:18:39;;;;;;;;;;;;;;;29.02;22.12;98407.97;170479;29;1134;-49
2021/12/14 00:18:45;;;;;;;;;;;;;;;29.02;22.06;98406.16;170159;29;2121;-49
2021/12/14 00:18:50;;;;;;;;;;;;;;;29.04;21.76;98412.19;169283;29;1073;-48
2021/12/14 00:18:55;;;;;;;;;;;;;;;29.06;21.96;98414.72;169826;29;1041;-49
2021/12/14 00:19:01;;;;;;;;;;;;;;;29.05;22.04;98413.03;169654;29;1354;-49
2021/12/14 00:19:06;;;;;;;;;;;;;;;29.02;21.99;98410.63;169590;29;989;-48
2021/12/14 00:19:12;;;;;;;;;;;;;;;29.03;22.15;98399.88;169551;29;4256;-49
2021/12/14 00:19:17;;;;;;;;;;;;;;;29.04;22.11;98409.53;169656;29;981;-48
2021/12/14 00:19:22;;;;;;;;;;;;;;;29.04;22.03;98411.34;169849;29;890;-48
2021/12/14 00:19:27;;;;;;;;;;;;;;;29.04;21.74;98409.53;169848;29;1163;-49
2021/12/14 00:19:33;;;;;;;;;;;;;;;29.04;22.01;98401.56;169306;29;874;-50
2021/12/14 00:19:38;;;;;;;;;;;;;;;29.07;22.10;98408.44;169134;29;1152;-48
2021/12/14 00:19:43;;;;;;;;;;;;;;;29.03;21.99;98405.19;170033;29;1032;-49
2021/12/14 00:19:49;;;;;;;;;;;;;;;29.03;22.03;98407.84;170025;29;869;-49
2021/12/14 00:19:55;;;;;;;;;;;;;;;29.04;21.95;98411.34;169267;29;1135;-49
2021/12/14 00:20:00;;;;;;;;;;;;;;;29.04;21.88;98406.03;169215;29;1119;-48
2021/12/14 00:20:08;;;;;;;;;;;;;;;29.05;22.05;98402.41;169416;29;1155;-49
2021/12/14 00:20:19;;;;;;;;;;;;;;;29.08;22.20;98410.16;169979;29;1118;-50
2021/12/14 00:20:30;;;;;;;;;;;;;;;29.07;21.82;98406.66;169946;29;875;-49
2021/12/14 00:20:50;;;;;;;;;;;;;;;29.02;21.99;98403.50;168120;29;1526;-48
2021/12/14 00:20:57;;;;;;;;;;;;;;;28.96;22.14;98392.53;169910;29;1614;-50
2021/12/14 00:21:08;;;;;;;;;;;;;;;28.98;22.21;98402.03;170144;29;1000;-49
2021/12/14 00:21:19;;;;;;;;;;;;;;;28.98;22.09;98402.03;170576;29;1076;-49
2021/12/14 00:21:29;;;;;;;;;;;;;;;29.01;22.14;98400.97;171241;28;1166;-49
2021/12/14 00:21:34;;;;;;;;;;;;;;;29.00;22.27;98402.78;171230;28;924;-49
2021/12/14 00:21:43;;;;;;;;;;;;;;;28.98;22.31;98403.84;171219;28;1154;-49
2021/12/14 00:21:51;;;;;;;;;;;;;;;28.96;22.15;98404.00;171790;28;923;-49
2021/12/14 00:22:03;;;;;;;;;;;;;;;29.00;21.93;98399.28;171337;28;862;-49
2021/12/14 00:24:06;;;;;;;;;;;;;;;29.02;22.12;98402.66;171069;28;846;-49
2021/12/14 00:24:06;;;;;;;;;;;;;;;28.98;22.16;98398.53;170376;29;1669;-49
2021/12/14 00:24:14;;;;;;;;;;;;;;;28.95;21.91;98404.97;169354;29;1613;-49
2021/12/14 00:24:20;;;;;;;;;;;;;;;28.95;22.13;98401.47;170170;29;963;-48
2021/12/14 00:24:26;;;;;;;;;;;;;;;28.92;21.97;98397.25;170636;29;1217;-49
2021/12/14 00:24:31;;;;;;;;;;;;;;;28.92;22.23;98399.91;170207;29;1767;-48
2021/12/14 00:24:37;;;;;;;;;;;;;;;28.91;22.30;98400.84;169821;29;1907;-49
2021/12/14 00:24:42;;;;;;;;;;;;;;;28.91;22.16;98395.53;170159;29;929;-49
2021/12/14 00:24:47;;;;;;;;;;;;;;;28.92;22.06;98399.91;170339;29;1174;-50
2021/12/14 00:24:54;;;;;;;;;;;;;;;28.95;22.32;98398.81;170570;29;909;-49
2021/12/14 00:24:59;;;;;;;;;;;;;;;28.93;22.05;98404.25;170337;28;1158;-49
2021/12/14 00:25:05;;;;;;;;;;;;;;;28.92;22.18;98403.41;170454;29;1016;-50
2021/12/14 00:25:10;;;;;;;;;;;;;;;28.90;22.35;98399.16;170097;29;1134;-49
2021/12/14 00:25:15;;;;;;;;;;;;;;;28.89;22.10;98398.28;169988;29;1028;-49
2021/12/14 00:25:31;;;;;;;;;;;;;;;28.90;22.05;98399.16;170000;29;1103;-49
2021/12/14 00:25:39;;;;;;;;;;;;;;;28.92;22.18;98403.41;170577;29;720;-49
2021/12/14 00:25:49;;;;;;;;;;;;;;;28.93;22.28;98401.59;170632;29;1083;-48
2021/12/14 00:25:55;;;;;;;;;;;;;;;28.92;21.87;98399.91;170611;29;1162;-49
2021/12/14 00:26:00;;;;;;;;;;;;;;;28.91;22.26;98401.72;170451;29;1091;-49
2021/12/14 00:26:05;;;;;;;;;;;;;;;28.86;22.22;98395.03;170539;29;810;-49
2021/12/14 00:26:10;;;;;;;;;;;;;;;28.91;21.93;98398.19;170005;29;1094;-49
2021/12/14 00:26:16;;;;;;;;;;;;;;;28.92;22.08;98391.94;169973;29;791;-49
2021/12/14 00:26:21;;;;;;;;;;;;;;;28.93;21.88;98404.25;170272;29;1025;-49
2021/12/14 00:26:26;;;;;;;;;;;;;;;28.95;22.33;98399.66;170733;28;861;-48
2021/12/14 00:26:51;;;;;;;;;;;;;;;28.95;21.98;98397.00;170590;29;1103;-49
2021/12/14 00:27:06;;;;;;;;;;;;;;;28.97;22.04;98396.88;170668;29;1182;-49
2021/12/14 00:27:11;;;;;;;;;;;;;;;28.97;21.90;98392.41;170074;29;814;-48
2021/12/14 00:27:18;;;;;;;;;;;;;;;28.95;22.11;98397.00;168949;28;4262;-48
2021/12/14 00:27:24;;;;;;;;;;;;;;;28.94;21.90;98392.66;169309;29;870;-48
2021/12/14 00:27:29;;;;;;;;;;;;;;;28.95;21.94;98391.69;169788;29;963;-48
2021/12/14 00:27:34;;;;;;;;;;;;;;;28.97;22.10;98400.38;169931;29;834;-49
2021/12/14 00:27:39;;;;;;;;;;;;;;;28.98;21.97;98401.19;170020;29;859;-49
2021/12/14 00:27:44;;;;;;;;;;;;;;;28.97;22.09;98391.56;169986;29;1130;-49
2021/12/14 00:27:50;;;;;;;;;;;;;;;28.99;22.01;98401.06;169824;29;846;-49
2021/12/14 00:27:55;;;;;;;;;;;;;;;29.00;22.27;98397.47;169930;29;1233;-49
2021/12/14 00:28:02;;;;;;;;;;;;;;;29.00;22.18;98393.97;169174;29;838;-49
2021/12/14 00:28:12;;;;;;;;;;;;;;;28.99;21.91;98393.09;169082;29;1215;-49
2021/12/14 00:28:17;;;;;;;;;;;;;;;29.01;22.13;98396.50;169186;29;926;-50
2021/12/14 00:28:26;;;;;;;;;;;;;;;29.03;22.15;98393.72;169164;29;958;-48
2021/12/14 00:28:33;;;;;;;;;;;;;;;29.04;21.89;98387.44;169094;29;1140;-48
2021/12/14 00:28:39;;;;;;;;;;;;;;;29.03;21.99;98396.38;169217;29;1081;-49
2021/12/14 00:28:44;;;;;;;;;;;;;;;29.04;22.01;98396.25;169225;29;1219;-49
2021/12/14 00:28:50;;;;;;;;;;;;;;;29.04;22.18;98387.44;169184;29;902;-49
2021/12/14 00:28:56;;;;;;;;;;;;;;;29.06;21.81;98391.66;169991;29;1171;-49
2021/12/14 00:29:01;;;;;;;;;;;;;;;29.06;22.11;98398.78;169493;29;1952;-49
2021/12/14 00:29:06;;;;;;;;;;;;;;;29.05;21.81;98389.13;169525;29;882;-49
2021/12/14 00:29:19;;;;;;;;;;;;;;;29.04;21.75;98390.09;170014;29;1001;-49
2021/12/14 00:29:28;;;;;;;;;;;;;;;29.02;21.97;98395.53;169317;29;929;-49
2021/12/14 00:29:43;;;;;;;;;;;;;;;29.01;22.01;98390.34;169867;29;934;-49
2021/12/14 00:29:49;;;;;;;;;;;;;;;28.97;22.17;98392.41;169239;29;804;-49
2021/12/14 00:29:55;;;;;;;;;;;;;;;28.97;22.29;98392.41;169821;29;1069;-49
2021/12/14 00:30:00;;;;;;;;;;;;;;;28.95;22.19;98386.38;170589;28;1157;-48
2021/12/14 00:30:07;;;;;;;;;;;;;;;28.98;21.94;98396.75;170049;29;1179;-48
2021/12/14 00:30:12;;;;;;;;;;;;;;;28.98;22.27;98386.13;170689;29;842;-48
2021/12/14 00:30:18;;;;;;;;;;;;;;;29.00;22.07;98393.97;170492;29;1171;-49
2021/12/14 00:30:23;;;;;;;;;;;;;;;28.98;21.98;98386.13;170695;29;849;-48
2021/12/14 00:30:28;;;;;;;;;;;;;;;28.99;21.96;98384.31;170235;29;1099;-50
2021/12/14 00:30:35;;;;;;;;;;;;;;;29.01;21.95;98393.00;169863;29;806;-49
2021/12/14 00:30:41;;;;;;;;;;;;;;;29.00;21.90;98389.50;170384;29;1151;-49
2021/12/14 00:30:46;;;;;;;;;;;;;;;29.01;21.83;98391.19;170427;28;1043;-48
2021/12/14 00:30:51;;;;;;;;;;;;;;;29.03;21.96;98391.06;170081;29;1111;-49
2021/12/14 00:30:57;;;;;;;;;;;;;;;29.02;21.90;98392.88;169408;29;819;-49
2021/12/14 00:31:03;;;;;;;;;;;;;;;29.00;22.08;98386.84;169366;29;1055;-49
2021/12/14 00:31:10;;;;;;;;;;;;;;;29.00;22.12;98388.69;169199;29;1503;-49
2021/12/14 00:31:16;;;;;;;;;;;;;;;29.01;21.93;98393.84;169303;29;4287;-49
2021/12/14 00:31:21;;;;;;;;;;;;;;;28.99;21.87;98393.09;169981;29;830;-48
2021/12/14 00:31:27;;;;;;;;;;;;;;;28.99;22.34;98389.63;169965;29;1144;-49
2021/12/14 00:31:34;;;;;;;;;;;;;;;28.96;22.07;98390.72;169844;29;711;-49
2021/12/14 00:31:39;;;;;;;;;;;;;;;28.98;22.12;98387.94;169919;29;1158;-49
2021/12/14 00:31:45;;;;;;;;;;;;;;;28.99;22.07;98385.13;169992;29;847;-49
2021/12/14 00:31:50;;;;;;;;;;;;;;;29.00;22.18;98388.69;169854;29;1151;-50
2021/12/14 00:31:56;;;;;;;;;;;;;;;29.00;22.03;98386.84;169282;29;638;-48
2021/12/14 00:32:03;;;;;;;;;;;;;;;28.99;22.10;98385.13;168792;29;1047;-48
2021/12/14 00:32:11;;;;;;;;;;;;;;;29.00;22.25;98392.16;168522;29;883;-49
2021/12/14 00:32:19;;;;;;;;;;;;;;;29.01;22.01;98388.53;169296;29;1152;-49
2021/12/14 00:32:25;;;;;;;;;;;;;;;29.02;22.22;98390.22;169113;29;954;-49
2021/12/14 00:32:33;;;;;;;;;;;;;;;29.04;21.96;98393.59;169342;29;807;-50
2021/12/14 00:32:38;;;;;;;;;;;;;;;29.04;22.02;98390.94;169139;29;997;-49
2021/12/14 00:32:44;;;;;;;;;;;;;;;29.03;22.01;98383.94;169374;29;826;-49
2021/12/14 00:32:49;;;;;;;;;;;;;;;28.96;22.08;98374.78;169190;29;1151;-49
2021/12/14 00:32:54;;;;;;;;;;;;;;;29.03;22.03;98386.59;169356;29;943;-50
2021/12/14 00:32:59;;;;;;;;;;;;;;;29.03;22.01;98388.41;169254;29;1171;-49
2021/12/14 00:33:08;;;;;;;;;;;;;;;29.01;21.84;98388.53;169038;29;883;-49
2021/12/14 00:33:14;;;;;;;;;;;;;;;29.02;21.92;98382.25;169059;29;972;-48
2021/12/14 00:33:20;;;;;;;;;;;;;;;29.06;21.87;98391.66;169110;29;834;-49
2021/12/14 00:33:30;;;;;;;;;;;;;;;29.06;21.99;98386.34;169266;29;1159;-48
2021/12/14 00:33:36;;;;;;;;;;;;;;;29.07;21.75;98385.41;169119;29;1084;-49
2021/12/14 00:33:41;;;;;;;;;;;;;;;29.08;21.93;98383.59;169363;29;847;-49
2021/12/14 00:33:47;;;;;;;;;;;;;;;29.07;22.02;98390.72;169207;29;984;-48
2021/12/14 00:33:53;;;;;;;;;;;;;;;29.07;21.83;98384.53;169389;29;823;-49
2021/12/14 00:34:01;;;;;;;;;;;;;;;29.05;21.96;98387.31;169762;29;1147;-49
2021/12/14 00:34:07;;;;;;;;;;;;;;;29.06;22.19;98386.34;170267;29;923;-50
2021/12/14 00:34:21;;;;;;;;;;;;;;;29.07;21.93;98384.53;169970;29;1083;-49
2021/12/14 00:34:38;;;;;;;;;;;;;;;29.04;21.90;98384.78;169957;29;916;-49
2021/12/14 00:34:44;;;;;;;;;;;;;;;29.04;21.88;98382.13;169864;29;818;-49
2021/12/14 00:34:50;;;;;;;;;;;;;;;29.03;21.96;98388.41;170003;29;873;-49
2021/12/14 00:34:58;;;;;;;;;;;;;;;29.04;21.82;98382.13;170651;29;883;-49
2021/12/14 00:35:04;;;;;;;;;;;;;;;29.03;21.78;98391.91;169114;29;918;-49
2021/12/14 00:35:13;;;;;;;;;;;;;;;29.03;22.11;98391.06;169411;29;1283;-48
2021/12/14 00:35:20;;;;;;;;;;;;;;;29.01;22.07;98380.56;169489;29;5464;-48
2021/12/14 00:35:25;;;;;;;;;;;;;;;29.02;22.20;98387.56;170026;29;897;-49
2021/12/14 00:35:30;;;;;;;;;;;;;;;29.02;21.90;98384.06;169940;29;866;-48
2021/12/14 00:35:36;;;;;;;;;;;;;;;29.03;22.15;98385.75;169888;29;1119;-48
2021/12/14 00:35:41;;;;;;;;;;;;;;;29.04;22.07;98388.28;170449;29;798;-49
2021/12/14 00:35:46;;;;;;;;;;;;;;;29.03;22.05;98385.75;170128;29;1115;-49
2021/12/14 00:35:52;;;;;;;;;;;;;;;29.03;21.94;98386.59;169887;29;938;-49
2021/12/14 00:35:58;;;;;;;;;;;;;;;29.06;21.99;98377.53;169214;29;1171;-49
2021/12/14 00:36:04;;;;;;;;;;;;;;;29.04;22.17;98382.13;169118;29;835;-50
2021/12/14 00:36:10;;;;;;;;;;;;;;;29.03;22.19;98381.28;169171;29;1198;-48
2021/12/14 00:36:15;;;;;;;;;;;;;;;29.06;21.88;98385.50;169330;29;1024;-49
2021/12/14 00:36:21;;;;;;;;;;;;;;;29.03;21.80;98378.63;169133;29;1171;-49
2021/12/14 00:36:27;;;;;;;;;;;;;;;29.04;22.14;98379.47;169302;29;780;-49
2021/12/14 00:36:32;;;;;;;;;;;;;;;29.04;22.07;98380.31;169559;29;1016;-48
2021/12/14 00:36:37;;;;;;;;;;;;;;;29.06;21.99;98381.03;169282;29;868;-49
2021/12/14 00:36:42;;;;;;;;;;;;;;;29.07;22.14;98376.56;169285;29;1107;-50
2021/12/14 00:36:47;;;;;;;;;;;;;;;29.07;22.01;98380.09;169067;29;1985;-49
2021/12/14 00:36:53;;;;;;;;;;;;;;;29.08;21.73;98372.97;169896;29;1001;-49
2021/12/14 00:36:58;;;;;;;;;;;;;;;29.03;22.09;98381.28;169405;29;1214;-49
2021/12/14 00:37:04;;;;;;;;;;;;;;;29.03;22.15;98380.44;168914;29;977;-49
2021/12/14 00:37:11;;;;;;;;;;;;;;;29.03;22.08;98383.94;168675;29;1195;-49
2021/12/14 00:37:45;;;;;;;;;;;;;;;29.03;22.21;98383.94;168825;29;906;-49
2021/12/14 00:37:51;;;;;;;;;;;;;;;29.04;22.12;98376.81;167894;29;815;-48
2021/12/14 00:37:58;;;;;;;;;;;;;;;29.05;21.75;98383.81;167968;29;1161;-50
2021/12/14 00:38:03;;;;;;;;;;;;;;;29.03;22.17;98372.47;167698;29;1139;-49
2021/12/14 00:38:08;;;;;;;;;;;;;;;29.01;22.14;98379.72;167568;29;1591;-49
2021/12/14 00:38:14;;;;;;;;;;;;;;;29.00;22.15;98384.19;167952;29;819;-48
2021/12/14 00:38:21;;;;;;;;;;;;;;;28.98;21.88;98380.81;169068;29;1091;-50
2021/12/14 00:38:27;;;;;;;;;;;;;;;28.98;21.82;98383.47;170012;29;1808;-49
2021/12/14 00:38:34;;;;;;;;;;;;;;;29.00;22.01;98378.06;170345;29;1107;-50
2021/12/14 00:38:40;;;;;;;;;;;;;;;28.97;21.84;98373.81;170724;29;818;-49
2021/12/14 00:38:45;;;;;;;;;;;;;;;28.98;22.25;98374.66;169333;29;1021;-49
2021/12/14 00:38:56;;;;;;;;;;;;;;;28.97;21.91;98380.94;169270;29;1001;-48
2021/12/14 00:39:03;;;;;;;;;;;;;;;29.00;22.09;98380.72;169396;29;972;-50
2021/12/14 00:39:08;;;;;;;;;;;;;;;29.00;22.10;98378.06;169848;29;1001;-49
2021/12/14 00:39:13;;;;;;;;;;;;;;;28.99;22.18;98377.19;169657;29;4299;-49
2021/12/14 00:39:18;;;;;;;;;;;;;;;28.99;22.08;98377.19;169852;29;949;-49
2021/12/14 00:39:24;;;;;;;;;;;;;;;29.00;22.03;98378.91;170114;29;957;-48
2021/12/14 00:39:29;;;;;;;;;;;;;;;29.01;22.08;98380.56;169887;29;1163;-49
2021/12/14 00:39:34;;;;;;;;;;;;;;;29.00;22.10;98378.91;169798;29;862;-49
2021/12/14 00:39:40;;;;;;;;;;;;;;;29.01;21.90;98374.41;169937;29;1194;-49
2021/12/14 00:39:45;;;;;;;;;;;;;;;29.03;22.11;98375.97;170135;29;921;-49
2021/12/14 00:39:51;;;;;;;;;;;;;;;29.02;22.14;98378.75;170388;29;1032;-48
2021/12/14 00:39:57;;;;;;;;;;;;;;;29.01;22.13;98377.06;169409;29;1607;-49
2021/12/14 00:40:22;;;;;;;;;;;;;;;28.93;22.16;98361.75;169475;29;1107;-49
2021/12/14 00:40:29;;;;;;;;;;;;;;;29.02;22.19;98378.75;168587;29;1081;-49
2021/12/14 00:40:36;;;;;;;;;;;;;;;28.99;21.77;98377.19;168272;29;1068;-48
2021/12/14 00:40:42;;;;;;;;;;;;;;;28.97;21.94;98376.47;167720;29;1468;-49
2021/12/14 00:40:50;;;;;;;;;;;;;;;28.97;22.25;98381.78;167557;29;1765;-49
2021/12/14 00:40:59;;;;;;;;;;;;;;;28.98;22.03;98386.13;168652;29;985;-48
2021/12/14 00:41:08;;;;;;;;;;;;;;;28.99;22.10;98379.84;169515;29;1041;-49
2021/12/14 00:41:15;;;;;;;;;;;;;;;29.04;21.81;98382.13;169938;29;1115;-49
2021/12/14 00:41:21;;;;;;;;;;;;;;;29.02;21.99;98384.06;169841;29;874;-49
2021/12/14 00:41:27;;;;;;;;;;;;;;;28.91;22.03;98353.03;170204;29;956;-49
2021/12/14 00:41:34;;;;;;;;;;;;;;;29.02;21.86;98374.28;169762;29;900;-47
2021/12/14 00:41:39;;;;;;;;;;;;;;;29.01;21.82;98369.97;169292;29;1826;-50
2021/12/14 00:41:44;;;;;;;;;;;;;;;29.03;21.90;98378.63;169577;29;1080;-50
2021/12/14 00:41:49;;;;;;;;;;;;;;;29.01;21.84;98372.59;169305;29;1085;-49
2021/12/14 00:41:54;;;;;;;;;;;;;;;29.00;22.14;98370.94;169928;29;1072;-49
2021/12/14 00:42:00;;;;;;;;;;;;;;;28.98;21.91;98372.00;169828;29;918;-48
2021/12/14 00:42:05;;;;;;;;;;;;;;;28.99;22.12;98371.88;169669;29;1310;-48
2021/12/14 00:42:10;;;;;;;;;;;;;;;28.99;21.89;98377.19;169827;29;806;-50
2021/12/14 00:42:15;;;;;;;;;;;;;;;29.00;21.81;98372.75;169838;29;1000;-48
2021/12/14 00:42:21;;;;;;;;;;;;;;;28.98;22.13;98375.50;169981;29;512;-49
2021/12/14 00:42:27;;;;;;;;;;;;;;;28.96;22.17;98380.09;169859;29;1123;-49